Jacksonville, FL (32228)

6:34 AM EDT on April 02, 2015 (GMT -0400)
Mayport Naval Station / Adm. David L. McDonald Field | | Change Station
CLOSE
Current Station
Airport
Location: Mayport NS,
Elevation: 16 ft
Nearby Weather Stations
Active Advisory: Special Statement

Elev 16 ft 30.39 °N, 81.42 °W | Updated 42 minutes ago

Scattered Clouds
Scattered Clouds
57 °F
Feels Like 57 °F
N
4
Wind Variable Wind from NNE

Today
High -- | Low -- °F
--% Chance of Precip.
Yesterday
High -- | Low -- °F
Precip. -- in
7:13 AM 7:45 PM
Waxing Gibbous, 96% visible
Pressure 30.16 in
Visibility 2.0 miles
Clouds Scattered Clouds 500 ft
Dew Point 56 °F
Humidity 96%
Rainfall 0.00 in
Snow Depth Not available.
UV 0 out of 12
Pollen 9.80 out of 12
Air Quality Not available.
Flu Activity Not available.
METAR KNRB 020952Z 02003KT 2SM BR SCT005 14/13 A3016 RMK AO2 SLP211 T01390133 $

More Conditions Fewer Conditions

Pressure 30.16 in
Visibility 2.0 miles
Clouds Scattered Clouds 500 ft
Dew Point 56 °F
Humidity 96%
Rainfall 0.00 in
Snow Depth Not available.
UV 0 out of 12
Pollen 9.80 out of 12
Air Quality Not available.
Flu Activity Not available.
METAR KNRB 020952Z 02003KT 2SM BR SCT005 14/13 A3016 RMK AO2 SLP211 T01390133 $

More Conditions Fewer Conditions

10-Day Weather Forecast

Almanac

Astronomy

Apr. 02, 2015 Rise Set
Actual Time
Civil Twilight
Nautical Twilight
Astronomical Twilight
Moon
Length of Visible Light
Length of Day
Tomorrow will be .
, % of the Moon is Illuminated

Today's Extremes

State Highs State Lows

Community

WunderPhotos

Upload Photos

1,810,216 photos uploaded!

WunderBlogs® & News

Nearby

Air Quality

  Air Quality AQ Index Pollutant
Not available.

Snow Depth

Station Depth Elevation

Earthquake Activity

City Distance Mag. Time & Date
Minimum magnitude displayed is 2.5.

Coastal Water Temperatures

Place Temperature

Stations

Nearby Weather Stations

Station Location Temp. Windchill Dew Point Humidity Wind Precip. Elev Updated Type
                   
Special Statement
Statement as of 5:09 AM EDT on April 02, 2015

... Patchy dense fog early this morning...

Areas of fog have formed and patches of dense fog are occurring
near the coast and a few locations further inland. In the locally
dense fog... visibilities of a quarter mile or less are to be
expected. If driving... use caution and be prepared for potential
of rapidly changing visibilities. The fog should lift by 9 to 10
am.